createdAt,value
2024-04-14T00:00:51.018Z,6.40
2024-04-14T00:01:57.855Z,6.03
2024-04-14T00:03:04.575Z,6.52
2024-04-14T00:04:11.412Z,6.39
2024-04-14T00:05:18.257Z,6.51
2024-04-14T00:06:25.147Z,6.46
2024-04-14T00:07:31.866Z,6.45
2024-04-14T00:08:38.574Z,6.18
2024-04-14T00:09:45.332Z,7.33
2024-04-14T00:10:52.066Z,7.44
2024-04-14T00:11:58.754Z,6.10
2024-04-14T00:13:05.540Z,6.19
2024-04-14T00:14:12.337Z,6.38
2024-04-14T00:15:19.075Z,6.49
2024-04-14T00:16:25.789Z,5.96
2024-04-14T00:17:32.557Z,6.50
2024-04-14T00:18:39.790Z,6.31
2024-04-14T00:19:47.068Z,6.44
2024-04-14T00:20:54.288Z,6.99
2024-04-14T00:22:01.092Z,6.52
2024-04-14T00:23:07.813Z,6.11
2024-04-14T00:24:14.523Z,5.78
2024-04-14T00:25:21.247Z,6.11
2024-04-14T00:26:28.018Z,6.25
2024-04-14T00:27:34.765Z,6.27
2024-04-14T00:28:41.463Z,5.56
2024-04-14T00:29:48.201Z,5.63
2024-04-14T00:30:55.108Z,5.49
2024-04-14T00:32:02.071Z,5.63
2024-04-14T00:33:08.835Z,5.71
2024-04-14T00:34:15.642Z,5.64
2024-04-14T00:35:22.325Z,5.70
2024-04-14T00:36:29.110Z,5.39
2024-04-14T00:37:35.820Z,5.35
2024-04-14T00:38:42.534Z,5.47
2024-04-14T00:39:49.324Z,5.60
2024-04-14T00:40:56.036Z,5.30
2024-04-14T00:42:02.796Z,5.60
2024-04-14T00:43:09.542Z,5.51
2024-04-14T00:44:16.263Z,5.42
2024-04-14T00:45:23.025Z,5.65
2024-04-14T00:46:29.751Z,5.97
2024-04-14T00:47:36.595Z,5.70
2024-04-14T00:48:43.419Z,5.77
2024-04-14T00:49:50.162Z,5.72
2024-04-14T00:50:56.898Z,5.98
2024-04-14T00:52:03.727Z,5.56
2024-04-14T00:53:10.492Z,5.75
2024-04-14T00:54:17.214Z,5.94
2024-04-14T00:55:23.937Z,6.06
2024-04-14T00:56:30.674Z,6.18
2024-04-14T00:57:37.489Z,6.02
2024-04-14T00:58:44.252Z,5.78
2024-04-14T00:59:50.972Z,5.77
2024-04-14T01:00:57.784Z,6.06
2024-04-14T01:02:07.468Z,6.26
2024-04-14T01:03:14.427Z,5.96
2024-04-14T01:04:21.214Z,5.74
2024-04-14T01:05:27.939Z,5.94
2024-04-14T01:06:34.700Z,5.97
2024-04-14T01:07:41.413Z,5.71
2024-04-14T01:08:48.140Z,5.59
2024-04-14T01:09:54.962Z,5.26
2024-04-14T01:11:01.729Z,5.33
2024-04-14T01:12:08.442Z,5.45
2024-04-14T01:13:15.145Z,5.34
2024-04-14T01:14:21.893Z,5.47
2024-04-14T01:15:28.601Z,5.11
2024-04-14T01:16:35.316Z,5.03
2024-04-14T01:17:42.167Z,5.19
2024-04-14T01:18:49.004Z,5.40
2024-04-14T01:19:55.686Z,5.38
2024-04-14T01:21:02.413Z,5.43
2024-04-14T01:22:09.202Z,5.55
2024-04-14T01:23:15.932Z,5.30
2024-04-14T01:24:22.670Z,5.33
2024-04-14T01:25:29.396Z,5.40
2024-04-14T01:26:36.114Z,5.04
2024-04-14T01:27:42.895Z,5.43
2024-04-14T01:28:49.615Z,5.28
2024-04-14T01:29:56.326Z,5.68
2024-04-14T01:31:03.168Z,5.53
2024-04-14T01:32:10.047Z,5.54
2024-04-14T01:33:16.783Z,5.31
2024-04-14T01:34:23.494Z,5.18
2024-04-14T01:35:30.223Z,5.19
2024-04-14T01:36:36.969Z,5.13
2024-04-14T01:37:43.745Z,5.06
2024-04-14T01:38:50.453Z,5.07
2024-04-14T01:39:57.317Z,5.17
2024-04-14T01:41:04.089Z,5.15
2024-04-14T01:42:10.816Z,5.04
2024-04-14T01:43:17.564Z,5.20
2024-04-14T01:44:24.307Z,5.29
2024-04-14T01:45:31.110Z,5.07
2024-04-14T01:46:37.840Z,5.09
2024-04-14T01:47:44.673Z,5.01
2024-04-14T01:48:51.618Z,5.29
2024-04-14T01:49:58.342Z,5.40
2024-04-14T01:51:05.079Z,5.57
2024-04-14T01:52:11.795Z,5.21
2024-04-14T01:53:18.517Z,5.49
2024-04-14T01:54:25.269Z,5.46
2024-04-14T01:55:31.990Z,5.27
2024-04-14T01:56:38.745Z,5.20
2024-04-14T01:57:45.513Z,5.52
2024-04-14T01:58:52.227Z,5.47
2024-04-14T01:59:58.965Z,5.16
2024-04-14T02:01:05.756Z,5.19
2024-04-14T02:02:12.513Z,5.50
2024-04-14T02:03:19.381Z,5.51
2024-04-14T02:04:26.266Z,5.35
2024-04-14T02:05:32.977Z,5.30
2024-04-14T02:06:39.721Z,5.49
2024-04-14T02:07:46.436Z,5.32
2024-04-14T02:08:53.160Z,5.34
2024-04-14T02:09:59.924Z,5.19
2024-04-14T02:11:06.684Z,5.43
2024-04-14T02:12:13.389Z,5.29
2024-04-14T02:13:20.124Z,5.58
2024-04-14T02:14:26.857Z,5.56
2024-04-14T02:15:33.575Z,5.33
2024-04-14T02:16:40.297Z,5.33
2024-04-14T02:17:47.082Z,5.53
2024-04-14T02:18:53.879Z,5.32
2024-04-14T02:20:00.603Z,5.78
2024-04-14T02:21:07.322Z,5.35
2024-04-14T02:22:14.046Z,5.52
2024-04-14T02:23:20.801Z,5.59
2024-04-14T02:24:27.569Z,5.41
2024-04-14T02:25:34.228Z,5.45
2024-04-14T02:26:40.990Z,5.51
2024-04-14T02:27:47.715Z,5.38
2024-04-14T02:28:54.442Z,5.40
2024-04-14T02:30:01.197Z,5.35
2024-04-14T02:31:07.928Z,5.46
2024-04-14T02:32:14.713Z,5.37
2024-04-14T02:33:21.442Z,5.80
2024-04-14T02:34:28.159Z,5.65
2024-04-14T02:35:34.892Z,5.55
2024-04-14T02:36:41.633Z,5.42
2024-04-14T02:37:48.430Z,5.49
2024-04-14T02:38:55.163Z,5.31
2024-04-14T02:40:01.930Z,5.21
2024-04-14T02:41:08.652Z,4.96
2024-04-14T02:42:15.381Z,5.67
2024-04-14T02:43:22.138Z,5.28
2024-04-14T02:44:28.863Z,5.13
2024-04-14T02:45:35.632Z,5.51
2024-04-14T02:46:42.342Z,5.18
2024-04-14T02:47:49.108Z,5.40
2024-04-14T02:48:55.934Z,5.30
2024-04-14T02:50:02.746Z,5.48
2024-04-14T02:51:09.484Z,5.83
2024-04-14T02:52:16.229Z,5.88
2024-04-14T02:53:22.976Z,5.90
2024-04-14T02:54:29.719Z,5.44
2024-04-14T02:55:36.428Z,5.07
2024-04-14T02:56:43.223Z,5.66
2024-04-14T02:57:49.932Z,5.40
2024-04-14T02:58:56.659Z,4.94
2024-04-14T03:00:03.369Z,4.90
2024-04-14T03:01:10.215Z,5.26
2024-04-14T03:02:17.043Z,5.01
2024-04-14T03:03:23.813Z,5.14
2024-04-14T03:04:30.617Z,5.48
2024-04-14T03:05:37.403Z,5.49
2024-04-14T03:06:44.194Z,5.45
2024-04-14T03:07:50.987Z,5.39
2024-04-14T03:08:57.749Z,5.16
2024-04-14T03:10:04.493Z,4.94
2024-04-14T03:11:11.233Z,4.76
2024-04-14T03:12:17.916Z,4.55
2024-04-14T03:13:24.678Z,4.71
2024-04-14T03:14:31.412Z,4.91
2024-04-14T03:15:38.167Z,4.86
2024-04-14T03:16:44.984Z,4.83
2024-04-14T03:17:51.802Z,4.90
2024-04-14T03:18:58.708Z,4.76
2024-04-14T03:20:05.547Z,4.90
2024-04-14T03:21:12.264Z,4.99
2024-04-14T03:22:18.974Z,4.75
2024-04-14T03:23:25.754Z,4.94
2024-04-14T03:24:32.518Z,4.93
2024-04-14T03:25:39.258Z,4.50
2024-04-14T03:26:45.989Z,4.50
2024-04-14T03:27:52.732Z,4.65
2024-04-14T03:28:59.425Z,4.79
2024-04-14T03:30:06.161Z,4.75
2024-04-14T03:31:13.037Z,4.45
2024-04-14T03:32:19.783Z,4.81
2024-04-14T03:33:26.518Z,4.32
2024-04-14T03:34:33.242Z,4.02
2024-04-14T03:35:39.957Z,4.04
2024-04-14T03:36:46.723Z,4.18
2024-04-14T03:37:53.425Z,3.87
2024-04-14T03:39:00.172Z,4.16
2024-04-14T03:40:06.923Z,4.20
2024-04-14T03:41:13.617Z,4.45
2024-04-14T03:42:20.317Z,4.16
2024-04-14T03:43:27.060Z,3.93
2024-04-14T03:44:33.809Z,3.99
2024-04-14T03:45:40.595Z,4.04
2024-04-14T03:46:47.440Z,4.05
2024-04-14T03:47:54.238Z,4.04
2024-04-14T03:49:01.002Z,3.63
2024-04-14T03:50:07.732Z,3.85
2024-04-14T03:51:14.448Z,3.65
2024-04-14T03:52:21.177Z,3.82
2024-04-14T03:53:27.887Z,3.79
2024-04-14T03:54:34.659Z,3.77
2024-04-14T03:55:41.347Z,3.70
2024-04-14T03:56:48.070Z,3.65
2024-04-14T03:57:54.946Z,3.91
2024-04-14T03:59:01.703Z,4.03
2024-04-14T04:00:08.448Z,4.09
2024-04-14T04:01:15.248Z,4.06
2024-04-14T04:02:22.091Z,3.66
2024-04-14T04:03:28.841Z,3.56
2024-04-14T04:04:35.631Z,3.77
2024-04-14T04:05:42.332Z,4.04
2024-04-14T04:06:49.085Z,3.91
2024-04-14T04:07:55.794Z,4.28
2024-04-14T04:09:02.537Z,4.01
2024-04-14T04:10:09.251Z,4.09
2024-04-14T04:11:15.983Z,4.01
2024-04-14T04:12:22.693Z,4.05
2024-04-14T04:13:29.419Z,4.15
2024-04-14T04:14:36.187Z,4.19
2024-04-14T04:15:42.939Z,4.18
2024-04-14T04:16:49.699Z,4.26
2024-04-14T04:17:56.545Z,4.40
2024-04-14T04:19:11.280Z,4.11
2024-04-14T04:20:14.919Z,4.30
2024-04-14T04:21:21.637Z,4.49
2024-04-14T04:22:28.343Z,4.78
2024-04-14T04:23:35.075Z,4.53
2024-04-14T04:24:41.851Z,4.42
2024-04-14T04:25:48.562Z,4.78
2024-04-14T04:26:55.339Z,4.61
2024-04-14T04:28:02.051Z,4.64
2024-04-14T04:29:08.810Z,4.72
2024-04-14T04:30:15.532Z,4.65
2024-04-14T04:31:22.240Z,4.61
2024-04-14T04:32:29.066Z,4.34
2024-04-14T04:33:35.958Z,4.54
2024-04-14T04:34:42.746Z,4.50
2024-04-14T04:35:49.475Z,4.51
2024-04-14T04:36:56.310Z,5.02
2024-04-14T04:38:03.061Z,6.00
2024-04-14T04:39:09.863Z,4.76
2024-04-14T04:40:16.565Z,4.72
2024-04-14T04:41:23.282Z,4.99
2024-04-14T04:42:30.025Z,4.49
2024-04-14T04:43:36.737Z,4.42
2024-04-14T04:44:43.469Z,4.68
2024-04-14T04:45:50.223Z,4.74
2024-04-14T04:46:56.912Z,4.76
2024-04-14T04:48:03.721Z,4.63
2024-04-14T04:49:10.588Z,4.68
2024-04-14T04:50:17.371Z,4.53
2024-04-14T04:51:24.130Z,4.49
2024-04-14T04:52:30.866Z,4.78
2024-04-14T04:53:37.576Z,4.39
2024-04-14T04:54:44.349Z,4.81
2024-04-14T04:55:51.019Z,4.57
2024-04-14T04:56:57.750Z,4.07
2024-04-14T04:58:04.562Z,3.67
2024-04-14T04:59:11.290Z,4.09
2024-04-14T05:00:18.028Z,4.27
2024-04-14T05:01:24.886Z,4.80
2024-04-14T05:02:31.684Z,4.45
2024-04-14T05:03:38.666Z,4.07
2024-04-14T05:04:45.576Z,4.28
2024-04-14T05:05:52.267Z,4.19
2024-04-14T05:06:59.101Z,4.74
2024-04-14T05:08:05.848Z,4.56
2024-04-14T05:09:12.575Z,4.64
2024-04-14T05:10:19.297Z,4.74
2024-04-14T05:11:26.112Z,5.00
2024-04-14T05:12:32.916Z,4.92
2024-04-14T05:13:39.799Z,5.13
2024-04-14T05:14:46.533Z,5.15
2024-04-14T05:15:53.308Z,5.13
2024-04-14T05:17:00.020Z,5.19
2024-04-14T05:18:06.871Z,4.84
2024-04-14T05:19:13.681Z,5.24
2024-04-14T05:20:20.410Z,5.25
2024-04-14T05:21:27.187Z,4.90
2024-04-14T05:22:33.931Z,5.46
2024-04-14T05:23:40.687Z,5.18
2024-04-14T05:24:47.400Z,5.19
2024-04-14T05:25:54.112Z,4.71
2024-04-14T05:27:00.834Z,3.86
2024-04-14T05:28:07.576Z,4.11
2024-04-14T05:29:14.305Z,4.21
2024-04-14T05:30:21.036Z,3.89
2024-04-14T05:31:27.735Z,4.20
2024-04-14T05:32:35.900Z,3.44
2024-04-14T05:33:44.664Z,3.37
2024-04-14T05:34:51.384Z,3.63
2024-04-14T05:35:58.174Z,3.52
2024-04-14T05:37:04.918Z,4.07
2024-04-14T05:38:11.612Z,4.33
2024-04-14T05:39:18.351Z,4.51
2024-04-14T05:40:25.068Z,4.60
2024-04-14T05:41:31.793Z,4.59
2024-04-14T05:42:38.608Z,4.36
2024-04-14T05:43:45.351Z,3.98
2024-04-14T05:44:52.086Z,3.75
2024-04-14T05:45:58.883Z,4.05
2024-04-14T05:47:05.773Z,4.54
2024-04-14T05:48:12.570Z,4.45
2024-04-14T05:49:20.040Z,4.64
2024-04-14T05:50:26.875Z,4.46
2024-04-14T05:51:33.641Z,4.57
2024-04-14T05:52:40.330Z,4.81
2024-04-14T05:53:47.037Z,4.80
2024-04-14T05:54:53.840Z,4.53
2024-04-14T05:56:00.580Z,4.38
2024-04-14T05:57:07.274Z,4.64
2024-04-14T05:58:13.998Z,4.56
2024-04-14T05:59:20.756Z,4.63
2024-04-14T06:00:27.554Z,4.82
2024-04-14T06:01:34.456Z,4.71
2024-04-14T06:02:41.297Z,4.60
2024-04-14T06:03:48.079Z,4.92
2024-04-14T06:04:54.906Z,4.98
2024-04-14T06:06:01.608Z,5.07
2024-04-14T06:07:08.375Z,5.01
2024-04-14T06:08:15.066Z,4.86
2024-04-14T06:09:21.776Z,5.25
2024-04-14T06:10:28.547Z,4.99
2024-04-14T06:11:35.252Z,5.04
2024-04-14T06:12:41.987Z,5.36
2024-04-14T06:13:48.691Z,5.21
2024-04-14T06:14:55.405Z,5.35
2024-04-14T06:16:02.249Z,5.39
2024-04-14T06:17:09.072Z,4.97
2024-04-14T06:18:15.763Z,5.14
2024-04-14T06:19:22.465Z,5.18
2024-04-14T06:20:29.218Z,5.12
2024-04-14T06:21:35.990Z,4.88
2024-04-14T06:22:42.694Z,4.36
2024-04-14T06:23:49.408Z,3.77
2024-04-14T06:24:56.222Z,3.74
2024-04-14T06:26:03.003Z,3.04
2024-04-14T06:27:09.763Z,3.06
2024-04-14T06:28:16.531Z,3.00
2024-04-14T06:29:23.255Z,2.95
2024-04-14T06:30:30.062Z,2.90
2024-04-14T06:31:36.751Z,3.07
2024-04-14T06:32:43.567Z,3.07
2024-04-14T06:33:50.432Z,2.95
2024-04-14T06:34:57.259Z,3.31
2024-04-14T06:36:04.026Z,3.45
2024-04-14T06:37:10.744Z,3.28
2024-04-14T06:38:17.472Z,3.04
2024-04-14T06:39:24.209Z,2.76
2024-04-14T06:40:30.935Z,2.63
2024-04-14T06:41:37.672Z,2.67
2024-04-14T06:42:44.447Z,2.38
2024-04-14T06:43:51.134Z,2.36
2024-04-14T06:44:57.887Z,2.33
2024-04-14T06:46:04.693Z,2.45
2024-04-14T06:47:11.414Z,2.31
2024-04-14T06:48:18.163Z,2.23
2024-04-14T06:49:24.861Z,2.13
2024-04-14T06:50:31.597Z,2.24
2024-04-14T06:51:38.379Z,2.26
2024-04-14T06:52:45.162Z,2.19
2024-04-14T06:53:51.877Z,2.14
2024-04-14T06:54:58.668Z,2.26
2024-04-14T06:56:05.477Z,2.14
2024-04-14T06:57:12.223Z,2.13
2024-04-14T06:58:18.932Z,2.09
2024-04-14T06:59:25.637Z,2.02
2024-04-14T07:00:32.468Z,1.96
2024-04-14T07:01:39.413Z,2.18
2024-04-14T07:02:46.166Z,2.02
2024-04-14T07:03:52.925Z,2.15
2024-04-14T07:04:59.705Z,2.07
2024-04-14T07:06:06.467Z,2.08
2024-04-14T07:07:13.198Z,1.94
2024-04-14T07:08:19.933Z,2.00
2024-04-14T07:09:26.676Z,1.98
2024-04-14T07:10:33.416Z,1.85
2024-04-14T07:11:40.234Z,1.97
2024-04-14T07:12:47.104Z,2.06
2024-04-14T07:13:53.890Z,2.10
2024-04-14T07:15:00.612Z,1.99
2024-04-14T07:16:07.421Z,1.87
2024-04-14T07:17:14.269Z,1.87
2024-04-14T07:18:21.051Z,1.71
2024-04-14T07:19:27.890Z,1.82
2024-04-14T07:20:34.632Z,1.80
2024-04-14T07:21:41.430Z,1.83
2024-04-14T07:22:48.163Z,1.85
2024-04-14T07:23:54.862Z,1.86
2024-04-14T07:25:01.846Z,1.80
2024-04-14T07:26:08.690Z,1.69
2024-04-14T07:27:15.452Z,1.82
2024-04-14T07:28:22.277Z,1.90
2024-04-14T07:29:28.993Z,1.83
2024-04-14T07:30:35.744Z,1.84
2024-04-14T07:31:42.458Z,1.58
2024-04-14T07:32:49.283Z,1.71
2024-04-14T07:33:56.052Z,1.65
2024-04-14T07:35:02.784Z,1.62
2024-04-14T07:36:09.486Z,1.51
2024-04-14T07:37:16.250Z,1.66
2024-04-14T07:38:22.980Z,1.54
2024-04-14T07:39:29.721Z,1.57
2024-04-14T07:40:36.419Z,1.71
2024-04-14T07:41:43.141Z,1.63
2024-04-14T07:42:50.063Z,1.62
2024-04-14T07:43:56.933Z,1.53
2024-04-14T07:45:03.636Z,1.46
2024-04-14T07:46:10.407Z,1.51
2024-04-14T07:47:17.175Z,1.58
2024-04-14T07:48:24.004Z,1.54
2024-04-14T07:49:30.833Z,1.53
2024-04-14T07:50:37.599Z,1.40
2024-04-14T07:51:44.362Z,1.41
2024-04-14T07:52:51.123Z,1.59
2024-04-14T07:53:57.855Z,1.60
2024-04-14T07:55:04.653Z,1.45
2024-04-14T07:56:11.362Z,1.66
2024-04-14T07:57:18.092Z,1.55
2024-04-14T07:58:24.854Z,1.52
2024-04-14T07:59:31.588Z,1.55
2024-04-14T08:00:38.392Z,1.49
2024-04-14T08:01:45.179Z,1.46
2024-04-14T08:02:51.991Z,1.36
2024-04-14T08:03:58.837Z,1.62
2024-04-14T08:05:05.696Z,1.52
2024-04-14T08:06:12.418Z,1.50
2024-04-14T08:07:19.149Z,1.66
2024-04-14T08:08:25.917Z,1.71
2024-04-14T08:09:32.717Z,1.54
2024-04-14T08:10:39.466Z,1.81
2024-04-14T08:11:46.213Z,1.62
2024-04-14T08:12:52.984Z,1.68
2024-04-14T08:13:59.729Z,1.99
2024-04-14T08:15:06.438Z,2.30
2024-04-14T08:16:13.492Z,1.61
2024-04-14T08:17:20.352Z,1.49
2024-04-14T08:18:27.131Z,1.64
2024-04-14T08:19:33.871Z,1.43
2024-04-14T08:20:40.590Z,1.39
2024-04-14T08:21:47.352Z,1.55
2024-04-14T08:22:54.107Z,1.57
2024-04-14T08:24:00.870Z,1.60
2024-04-14T08:25:07.672Z,1.50
2024-04-14T08:26:14.423Z,1.53
2024-04-14T08:27:21.152Z,1.51
2024-04-14T08:28:27.926Z,1.52
2024-04-14T08:29:34.662Z,1.51
2024-04-14T08:30:41.440Z,1.76
2024-04-14T08:31:48.171Z,1.67
2024-04-14T08:32:54.939Z,1.64
2024-04-14T08:34:05.322Z,1.77
2024-04-14T08:35:13.305Z,1.68
2024-04-14T08:36:20.001Z,1.69
2024-04-14T08:37:26.769Z,1.92
2024-04-14T08:38:33.527Z,1.76
2024-04-14T08:39:40.295Z,1.83
2024-04-14T08:40:47.030Z,2.06
2024-04-14T08:41:53.770Z,1.74
2024-04-14T08:43:00.587Z,1.69
2024-04-14T08:44:07.421Z,1.60
2024-04-14T08:45:14.156Z,1.83
2024-04-14T08:46:20.983Z,1.70
2024-04-14T08:47:27.800Z,1.66
2024-04-14T08:48:34.587Z,1.73
2024-04-14T08:49:41.375Z,1.91
2024-04-14T08:50:48.122Z,1.87
2024-04-14T08:51:54.924Z,1.91
2024-04-14T08:53:01.610Z,2.15
2024-04-14T08:54:08.385Z,1.94
2024-04-14T08:55:15.111Z,1.92
2024-04-14T08:56:21.851Z,2.02
2024-04-14T08:57:28.612Z,2.02
2024-04-14T08:58:35.317Z,2.09
2024-04-14T08:59:42.073Z,1.96
2024-04-14T09:00:48.900Z,1.98
2024-04-14T09:01:55.774Z,2.07
2024-04-14T09:03:02.599Z,1.66
2024-04-14T09:04:09.422Z,1.78
2024-04-14T09:05:16.260Z,1.81
2024-04-14T09:06:23.019Z,1.87
2024-04-14T09:07:29.778Z,1.82
2024-04-14T09:08:36.514Z,1.88
2024-04-14T09:09:43.258Z,1.94
2024-04-14T09:10:50.009Z,2.07
2024-04-14T09:11:56.722Z,1.93
2024-04-14T09:13:05.011Z,1.78
2024-04-14T09:14:13.913Z,1.70
2024-04-14T09:15:20.701Z,1.75
2024-04-14T09:16:27.483Z,1.75
2024-04-14T09:17:34.345Z,1.91
2024-04-14T09:18:41.096Z,1.92
2024-04-14T09:19:47.887Z,1.63
2024-04-14T09:20:54.638Z,1.82
2024-04-14T09:22:01.424Z,1.72
2024-04-14T09:23:08.191Z,1.79
2024-04-14T09:24:14.914Z,1.69
2024-04-14T09:25:21.726Z,1.62
2024-04-14T09:26:28.481Z,1.73
2024-04-14T09:27:35.252Z,1.81
2024-04-14T09:28:41.967Z,1.72
2024-04-14T09:29:48.743Z,1.74
2024-04-14T09:30:55.487Z,1.78
2024-04-14T09:32:05.326Z,1.67
2024-04-14T09:33:12.565Z,1.87
2024-04-14T09:34:19.346Z,2.01
2024-04-14T09:35:26.049Z,1.92
2024-04-14T09:36:32.826Z,1.96
2024-04-14T09:37:39.616Z,1.95
2024-04-14T09:38:46.457Z,1.83
2024-04-14T09:39:53.290Z,1.81
2024-04-14T09:41:00.007Z,1.77
2024-04-14T09:42:06.729Z,1.73
2024-04-14T09:43:13.475Z,1.71
2024-04-14T09:44:23.278Z,1.79
2024-04-14T09:45:30.242Z,1.74
2024-04-14T09:46:36.929Z,1.72
2024-04-14T09:47:43.743Z,1.63
2024-04-14T09:48:50.508Z,1.66
2024-04-14T09:49:57.264Z,1.54
2024-04-14T09:51:03.989Z,1.72
2024-04-14T09:52:10.759Z,1.63
2024-04-14T09:53:17.449Z,1.76
2024-04-14T09:54:24.194Z,1.67
2024-04-14T09:55:30.956Z,1.56
2024-04-14T09:56:37.700Z,1.44
2024-04-14T09:57:44.485Z,1.67
2024-04-14T09:58:51.152Z,1.69
2024-04-14T09:59:57.893Z,1.58
2024-04-14T10:01:04.699Z,1.83
2024-04-14T10:02:11.472Z,1.96
2024-04-14T10:03:18.215Z,1.63
2024-04-14T10:04:25.047Z,1.53
2024-04-14T10:05:31.889Z,1.69
2024-04-14T10:06:38.714Z,1.72
2024-04-14T10:07:45.450Z,1.77
2024-04-14T10:08:52.186Z,1.91
2024-04-14T10:09:58.983Z,1.93
2024-04-14T10:11:05.833Z,1.74
2024-04-14T10:12:12.649Z,1.70
2024-04-14T10:13:19.386Z,1.61
2024-04-14T10:14:26.123Z,1.67
2024-04-14T10:15:32.902Z,1.77
2024-04-14T10:16:39.682Z,1.77
2024-04-14T10:17:46.420Z,1.59
2024-04-14T10:18:53.288Z,1.72
2024-04-14T10:20:00.135Z,1.70
2024-04-14T10:21:06.866Z,1.68
2024-04-14T10:22:13.583Z,1.66
2024-04-14T10:23:20.323Z,1.86
2024-04-14T10:24:27.066Z,1.77
2024-04-14T10:25:33.853Z,1.68
2024-04-14T10:26:40.562Z,1.72
2024-04-14T10:27:47.322Z,1.66
2024-04-14T10:28:54.061Z,1.44
2024-04-14T10:30:00.790Z,1.58
2024-04-14T10:31:07.610Z,1.57
2024-04-14T10:32:14.333Z,1.62
2024-04-14T10:33:21.149Z,1.76
2024-04-14T10:34:27.945Z,1.61
2024-04-14T10:35:34.790Z,1.35
2024-04-14T10:36:42.017Z,1.56
2024-04-14T10:37:48.904Z,1.49
2024-04-14T10:38:55.628Z,1.59
2024-04-14T10:40:02.454Z,1.68
2024-04-14T10:41:09.234Z,1.46
2024-04-14T10:42:15.948Z,1.58
2024-04-14T10:43:22.679Z,1.57
2024-04-14T10:44:29.400Z,1.48
2024-04-14T10:45:36.192Z,1.56
2024-04-14T10:46:42.951Z,1.68
2024-04-14T10:47:49.687Z,1.52
2024-04-14T10:48:56.951Z,1.63
2024-04-14T10:50:03.768Z,1.54
2024-04-14T10:51:10.505Z,1.54
2024-04-14T10:52:17.235Z,1.62
2024-04-14T10:53:23.967Z,1.68
2024-04-14T10:54:30.815Z,1.63
2024-04-14T10:55:37.638Z,1.59
2024-04-14T10:56:47.424Z,1.56
2024-04-14T10:57:55.450Z,1.61
2024-04-14T10:59:02.179Z,1.53
2024-04-14T11:00:08.912Z,1.49
2024-04-14T11:01:15.735Z,1.55
2024-04-14T11:02:22.522Z,1.51
2024-04-14T11:03:29.408Z,1.51
2024-04-14T11:04:36.326Z,1.51
2024-04-14T11:05:43.132Z,1.50
2024-04-14T11:06:49.911Z,1.63
2024-04-14T11:07:56.605Z,1.67
2024-04-14T11:09:03.338Z,1.59
2024-04-14T11:10:10.130Z,1.49
2024-04-14T11:11:16.861Z,1.70
2024-04-14T11:12:23.624Z,1.57
2024-04-14T11:13:30.326Z,1.54
2024-04-14T11:14:37.046Z,1.71
2024-04-14T11:15:43.937Z,1.53
2024-04-14T11:16:50.869Z,1.54
2024-04-14T11:17:57.680Z,1.45
2024-04-14T11:19:04.508Z,1.40
2024-04-14T11:20:11.329Z,1.81
2024-04-14T11:21:18.071Z,1.59
2024-04-14T11:22:24.789Z,1.59
2024-04-14T11:23:31.536Z,1.44
2024-04-14T11:24:38.269Z,1.44
2024-04-14T11:25:45.043Z,1.51
2024-04-14T11:26:51.778Z,1.61
2024-04-14T11:27:58.554Z,1.62
2024-04-14T11:29:05.227Z,1.60
2024-04-14T11:30:11.962Z,1.83
2024-04-14T11:31:18.757Z,1.47
2024-04-14T11:32:25.554Z,1.59
2024-04-14T11:33:32.427Z,1.68
2024-04-14T11:34:39.275Z,1.57
2024-04-14T11:35:46.038Z,1.66
2024-04-14T11:36:52.776Z,1.64
2024-04-14T11:37:59.508Z,1.58
2024-04-14T11:39:06.262Z,1.59
2024-04-14T11:40:13.047Z,1.53
2024-04-14T11:41:19.850Z,1.57
2024-04-14T11:42:26.577Z,1.56
2024-04-14T11:43:33.321Z,1.63
2024-04-14T11:44:40.080Z,1.48
2024-04-14T11:45:46.871Z,1.51
2024-04-14T11:46:53.644Z,1.42
2024-04-14T11:48:00.383Z,1.68
2024-04-14T11:49:07.187Z,1.71
2024-04-14T11:50:13.905Z,1.53
2024-04-14T11:51:20.649Z,1.77
2024-04-14T11:52:27.370Z,2.02
2024-04-14T11:53:34.110Z,1.80
2024-04-14T11:54:40.854Z,1.62
2024-04-14T11:55:47.633Z,1.60
2024-04-14T11:56:54.405Z,1.53
2024-04-14T11:58:01.222Z,1.77
2024-04-14T11:59:07.962Z,1.72
2024-04-14T12:00:14.702Z,1.52
2024-04-14T12:01:21.541Z,1.81
2024-04-14T12:02:28.296Z,1.82
2024-04-14T12:03:35.046Z,1.47
2024-04-14T12:04:41.787Z,1.56
2024-04-14T12:05:48.526Z,1.57
2024-04-14T12:06:55.274Z,1.59
2024-04-14T12:08:02.030Z,1.78
2024-04-14T12:09:08.771Z,1.57
2024-04-14T12:10:15.573Z,1.69
2024-04-14T12:11:22.392Z,1.59
2024-04-14T12:12:29.210Z,1.65
2024-04-14T12:13:35.947Z,1.55
2024-04-14T12:14:42.680Z,1.70
2024-04-14T12:15:49.437Z,1.62
2024-04-14T12:16:56.264Z,1.83
2024-04-14T12:18:03.096Z,1.82
2024-04-14T12:19:09.922Z,1.63
2024-04-14T12:20:16.662Z,1.60
2024-04-14T12:21:23.375Z,1.70
2024-04-14T12:22:30.142Z,1.61
2024-04-14T12:23:36.893Z,1.75
2024-04-14T12:24:43.662Z,1.73
2024-04-14T12:25:50.430Z,1.83
2024-04-14T12:26:57.178Z,1.77
2024-04-14T12:28:04.094Z,1.75
2024-04-14T12:29:10.903Z,1.65
2024-04-14T12:30:17.717Z,1.80
2024-04-14T12:31:24.550Z,1.88
2024-04-14T12:32:31.402Z,1.73
2024-04-14T12:33:38.199Z,1.80
2024-04-14T12:34:45.038Z,1.73
2024-04-14T12:35:51.823Z,1.91
2024-04-14T12:36:58.640Z,1.72
2024-04-14T12:38:05.396Z,1.75
2024-04-14T12:39:17.181Z,1.76
2024-04-14T12:40:23.810Z,1.75
2024-04-14T12:41:30.550Z,1.65
2024-04-14T12:42:37.395Z,1.73
2024-04-14T12:43:44.140Z,1.71
2024-04-14T12:44:50.896Z,1.71
2024-04-14T12:45:57.686Z,1.76
2024-04-14T12:47:04.506Z,1.98
2024-04-14T12:48:11.499Z,1.81
2024-04-14T12:49:18.272Z,1.73
2024-04-14T12:50:32.614Z,1.89
2024-04-14T12:51:36.668Z,1.73
2024-04-14T12:52:43.407Z,1.95
2024-04-14T12:53:50.169Z,1.74
2024-04-14T12:54:56.971Z,1.79
2024-04-14T12:56:03.708Z,1.73
2024-04-14T12:57:10.466Z,1.67
2024-04-14T12:58:17.226Z,1.78
2024-04-14T12:59:23.971Z,1.79
2024-04-14T13:00:30.729Z,1.61
2024-04-14T13:01:37.528Z,1.81
2024-04-14T13:02:44.322Z,1.58
2024-04-14T13:03:51.164Z,1.73
2024-04-14T13:04:57.997Z,1.81
2024-04-14T13:06:04.758Z,1.76
2024-04-14T13:07:11.656Z,1.86
2024-04-14T13:08:18.525Z,1.82
2024-04-14T13:09:25.245Z,1.77
2024-04-14T13:10:31.997Z,1.82
2024-04-14T13:11:38.727Z,1.85
2024-04-14T13:12:45.550Z,1.89
2024-04-14T13:13:52.265Z,1.86
2024-04-14T13:14:58.996Z,1.76
2024-04-14T13:16:05.849Z,1.81
2024-04-14T13:17:12.619Z,1.77
2024-04-14T13:18:19.399Z,1.91
2024-04-14T13:19:26.121Z,1.65
2024-04-14T13:20:32.877Z,1.62
2024-04-14T13:21:39.667Z,1.67
2024-04-14T13:22:46.383Z,1.68
2024-04-14T13:23:53.100Z,1.67
2024-04-14T13:24:59.843Z,1.84
2024-04-14T13:26:06.582Z,1.67
2024-04-14T13:27:13.344Z,1.91
2024-04-14T13:28:20.091Z,2.04
2024-04-14T13:29:28.614Z,1.73
2024-04-14T13:30:37.179Z,1.76
2024-04-14T13:31:43.918Z,1.93
2024-04-14T13:32:50.765Z,1.81
2024-04-14T13:33:57.663Z,1.68
2024-04-14T13:35:04.459Z,1.97
2024-04-14T13:36:11.173Z,1.75
2024-04-14T13:37:17.936Z,1.84
2024-04-14T13:38:24.686Z,1.82
2024-04-14T13:39:31.517Z,1.74
2024-04-14T13:40:38.299Z,1.95
2024-04-14T13:41:45.030Z,1.72
2024-04-14T13:42:51.818Z,1.64
2024-04-14T13:43:58.512Z,1.82
2024-04-14T13:45:05.256Z,1.99
2024-04-14T13:46:12.017Z,1.73
2024-04-14T13:47:18.765Z,1.77
2024-04-14T13:48:25.513Z,1.72
2024-04-14T13:49:35.634Z,1.84
2024-04-14T13:50:42.917Z,1.81
2024-04-14T13:51:49.647Z,1.83
2024-04-14T13:52:56.393Z,1.93
2024-04-14T13:54:03.135Z,1.93
2024-04-14T13:55:10.095Z,1.80
2024-04-14T13:56:16.930Z,1.72
2024-04-14T13:57:23.711Z,1.83
2024-04-14T13:58:30.439Z,1.72
2024-04-14T13:59:37.194Z,1.93
2024-04-14T14:00:43.949Z,1.80
2024-04-14T14:01:50.723Z,2.02
2024-04-14T14:02:57.507Z,1.98
2024-04-14T14:04:04.407Z,2.03
2024-04-14T14:05:11.231Z,1.97
2024-04-14T14:06:17.923Z,2.42
2024-04-14T14:07:24.714Z,1.83
2024-04-14T14:08:31.442Z,2.48
2024-04-14T14:09:38.205Z,1.81
2024-04-14T14:10:44.914Z,1.78
2024-04-14T14:11:51.644Z,1.93
2024-04-14T14:12:58.553Z,1.94
2024-04-14T14:14:05.299Z,1.90
2024-04-14T14:15:12.030Z,1.82
2024-04-14T14:16:18.960Z,1.94
2024-04-14T14:17:25.741Z,1.96
2024-04-14T14:18:32.512Z,1.83
2024-04-14T14:19:39.222Z,1.93
2024-04-14T14:20:45.943Z,1.99
2024-04-14T14:21:52.730Z,1.87
2024-04-14T14:22:59.458Z,1.80
2024-04-14T14:24:06.200Z,1.91
2024-04-14T14:25:12.987Z,1.99
2024-04-14T14:26:19.723Z,2.05
2024-04-14T14:27:26.482Z,1.90
2024-04-14T14:28:33.245Z,2.05
2024-04-14T14:29:39.987Z,1.97
2024-04-14T14:30:46.707Z,2.01
2024-04-14T14:31:53.406Z,1.81
2024-04-14T14:33:00.242Z,1.90
2024-04-14T14:34:07.109Z,1.98
2024-04-14T14:35:13.830Z,2.00
2024-04-14T14:36:20.586Z,1.94
2024-04-14T14:37:27.313Z,1.91
2024-04-14T14:38:39.364Z,1.84
2024-04-14T14:39:45.781Z,1.85
2024-04-14T14:40:52.611Z,1.94
2024-04-14T14:41:59.333Z,1.72
2024-04-14T14:43:06.147Z,1.72
2024-04-14T14:44:12.847Z,1.91
2024-04-14T14:45:19.566Z,1.96
2024-04-14T14:46:26.342Z,1.99
2024-04-14T14:47:33.085Z,1.85
2024-04-14T14:48:39.891Z,1.91
2024-04-14T14:49:46.618Z,1.96